MMPN/UPN METAR and TAF weather

Enter ICAO airport designator
Station Type Date Time Source
MMPN METAR 2020/09/22 16:52 UTC NOAA

MMPN 221652Z 00000KT 12SM SCT080 22/17 A3021 RMK 8/020 HZY CU


Station Type Date Time Source
MMPN Decoded METAR 2020/09/22 16:52 UTC NOAA

Uruapan / Gen Rayon, Mexico (MMPN) 19-24N 102-02W
Sep 22, 2020 - 12:52 PM EDT / 2020.09.22 1652 UTC
Wind: Calm:0
Visibility: 12 mile(s):0
Sky conditions: partly cloudy
Temperature: 71 F (22 C)
Dew Point: 62 F (17 C)
Relative Humidity: 73%
Pressure (altimeter): 30.21 in. Hg (1023 hPa)
ob: MMPN 221652Z 00000KT 12SM SCT080 22/17 A3021 RMK 8/020 HZY CU
cycle: 17

Station Type Date Time Source
MMPN TAF 2020/09/22 18:06 UTC NOAA

TAF TAF MMPN 221703Z 2218/2318 16006KT P6SM BKN030 BKN090
TEMPO 2219/2223 3SM TSRA BKN010CB
FM230000 36005KT 6SM HZ -RA BKN025 BKN090
FM231200 18005KT 6SM HZ BKN020 BKN080
TEMPO 2314/2318 4SM TSRA BKN015CB

Example: see airport list